createdAt,value
2023-05-16T00:00:34.432Z,91.77
2023-05-16T00:03:21.130Z,91.83
2023-05-16T00:05:47.685Z,91.76
2023-05-16T00:08:13.945Z,91.79
2023-05-16T00:10:40.273Z,91.80
2023-05-16T00:13:06.684Z,91.82
2023-05-16T00:15:33.142Z,91.79
2023-05-16T00:17:59.631Z,91.79
2023-05-16T00:20:27.459Z,91.93
2023-05-16T00:22:54.472Z,91.93
2023-05-16T00:25:21.028Z,91.98
2023-05-16T00:27:47.274Z,92.07
2023-05-16T00:30:15.119Z,92.09
2023-05-16T00:32:41.803Z,92.00
2023-05-16T00:35:10.914Z,91.88
2023-05-16T00:37:37.952Z,91.88
2023-05-16T00:40:04.807Z,91.84
2023-05-16T00:42:31.825Z,91.93
2023-05-16T00:44:58.083Z,91.85
2023-05-16T00:47:24.535Z,91.91
2023-05-16T00:49:50.839Z,91.87
2023-05-16T00:52:17.514Z,91.86
2023-05-16T00:54:43.777Z,91.83
2023-05-16T00:57:12.666Z,91.80
2023-05-16T00:59:40.031Z,91.90
2023-05-16T01:02:06.418Z,91.84
2023-05-16T01:04:32.968Z,91.82
2023-05-16T01:07:02.176Z,91.84
2023-05-16T01:09:28.541Z,91.77
2023-05-16T01:12:16.640Z,91.72
2023-05-16T01:15:05.622Z,91.64
2023-05-16T01:18:04.333Z,91.67
2023-05-16T01:20:56.264Z,91.65
2023-05-16T01:23:40.004Z,91.66
2023-05-16T01:26:22.829Z,91.56
2023-05-16T01:28:52.593Z,91.55
2023-05-16T01:31:20.471Z,91.56
2023-05-16T01:33:47.995Z,91.57
2023-05-16T01:36:40.759Z,91.59
2023-05-16T01:39:35.569Z,91.54
2023-05-16T01:42:06.213Z,91.56
2023-05-16T01:45:02.900Z,91.58
2023-05-16T01:47:32.416Z,91.63
2023-05-16T01:50:13.059Z,91.68
2023-05-16T01:52:49.447Z,91.67
2023-05-16T01:55:28.205Z,91.56
2023-05-16T01:57:55.901Z,91.57
2023-05-16T02:00:23.395Z,91.53
2023-05-16T02:02:49.729Z,91.44
2023-05-16T02:05:16.821Z,91.42
2023-05-16T02:07:43.774Z,91.42
2023-05-16T02:10:11.272Z,91.44
2023-05-16T02:12:37.586Z,91.43
2023-05-16T02:15:04.729Z,91.49
2023-05-16T02:17:31.239Z,91.51
2023-05-16T02:19:57.542Z,91.54
2023-05-16T02:22:23.785Z,91.54
2023-05-16T02:24:50.107Z,91.60
2023-05-16T02:27:17.934Z,91.60
2023-05-16T02:29:44.240Z,91.58
2023-05-16T02:32:10.449Z,91.49
2023-05-16T02:34:36.791Z,91.49
2023-05-16T02:37:03.104Z,91.52
2023-05-16T02:39:29.653Z,91.55
2023-05-16T02:41:55.909Z,91.49
2023-05-16T02:44:22.466Z,91.58
2023-05-16T02:46:48.948Z,91.66
2023-05-16T02:49:15.387Z,91.63
2023-05-16T02:51:41.695Z,91.71
2023-05-16T02:54:09.272Z,91.77
2023-05-16T02:56:36.534Z,91.84
2023-05-16T02:59:03.736Z,91.86
2023-05-16T03:01:30.604Z,91.89
2023-05-16T03:03:58.094Z,91.87
2023-05-16T03:06:24.660Z,91.83
2023-05-16T03:08:51.440Z,91.92
2023-05-16T03:11:24.182Z,92.03
2023-05-16T03:13:50.604Z,91.84
2023-05-16T03:16:17.136Z,91.80
2023-05-16T03:18:43.590Z,91.90
2023-05-16T03:21:10.410Z,91.90
2023-05-16T03:23:37.665Z,92.04
2023-05-16T03:26:04.827Z,92.07
2023-05-16T03:28:31.102Z,92.05
2023-05-16T03:30:58.075Z,92.08
2023-05-16T03:33:24.580Z,92.10
2023-05-16T03:35:51.598Z,92.03
2023-05-16T03:38:17.986Z,92.07
2023-05-16T03:40:44.324Z,92.17
2023-05-16T03:43:10.621Z,92.27
2023-05-16T03:45:37.012Z,92.28
2023-05-16T03:48:03.603Z,92.17
2023-05-16T03:50:30.099Z,92.16
2023-05-16T03:52:56.507Z,92.11
2023-05-16T03:55:22.866Z,92.09
2023-05-16T03:57:50.706Z,92.09
2023-05-16T04:00:17.411Z,92.04
2023-05-16T04:02:44.338Z,92.03
2023-05-16T04:05:11.866Z,91.92
2023-05-16T04:07:38.482Z,91.90
2023-05-16T04:10:05.700Z,91.84
2023-05-16T04:12:32.238Z,91.76
2023-05-16T04:14:58.673Z,91.63
2023-05-16T04:17:25.902Z,91.51
2023-05-16T04:19:52.387Z,91.40
2023-05-16T04:22:21.364Z,91.41
2023-05-16T04:24:48.523Z,91.36
2023-05-16T04:27:17.771Z,91.20
2023-05-16T04:29:44.052Z,91.20
2023-05-16T04:32:10.408Z,91.11
2023-05-16T04:34:39.205Z,91.13
2023-05-16T04:37:07.481Z,90.98
2023-05-16T04:39:37.405Z,90.63
2023-05-16T04:42:03.974Z,90.46
2023-05-16T04:44:30.722Z,90.13
2023-05-16T04:46:57.191Z,89.81
2023-05-16T04:49:23.601Z,89.46
2023-05-16T04:51:50.090Z,89.20
2023-05-16T04:54:16.373Z,88.83
2023-05-16T04:56:42.622Z,88.58
2023-05-16T04:59:08.943Z,88.21
2023-05-16T05:01:36.237Z,87.63
2023-05-16T05:04:02.597Z,87.12
2023-05-16T05:06:28.909Z,86.60
2023-05-16T05:08:55.202Z,86.34
2023-05-16T05:11:22.544Z,86.02
2023-05-16T05:13:50.256Z,85.86
2023-05-16T05:16:18.558Z,85.78
2023-05-16T05:18:45.005Z,85.79
2023-05-16T05:21:11.304Z,85.88
2023-05-16T05:23:37.631Z,85.71
2023-05-16T05:26:04.453Z,85.51
2023-05-16T05:28:30.713Z,85.41
2023-05-16T05:30:57.032Z,84.97
2023-05-16T05:33:28.707Z,84.87
2023-05-16T05:35:55.152Z,84.62
2023-05-16T05:38:22.161Z,84.05
2023-05-16T05:40:49.024Z,83.87
2023-05-16T05:43:15.380Z,83.53
2023-05-16T05:45:42.288Z,83.17
2023-05-16T05:48:10.159Z,82.88
2023-05-16T05:50:37.477Z,82.66
2023-05-16T05:53:04.322Z,82.69
2023-05-16T05:55:30.724Z,82.34
2023-05-16T05:57:57.290Z,82.08
2023-05-16T06:00:24.549Z,81.96
2023-05-16T06:02:51.276Z,81.69
2023-05-16T06:05:17.892Z,81.29
2023-05-16T06:07:44.166Z,80.56
2023-05-16T06:10:10.777Z,80.57
2023-05-16T06:12:37.340Z,80.29
2023-05-16T06:15:04.378Z,80.07
2023-05-16T06:17:31.855Z,79.56
2023-05-16T06:19:58.310Z,79.59
2023-05-16T06:22:24.614Z,79.96
2023-05-16T06:24:50.895Z,79.72
2023-05-16T06:27:17.165Z,79.41
2023-05-16T06:29:43.424Z,78.75
2023-05-16T06:32:12.474Z,79.02
2023-05-16T06:34:39.780Z,79.07
2023-05-16T06:37:06.205Z,78.85
2023-05-16T06:39:32.579Z,79.04
2023-05-16T06:41:59.047Z,78.85
2023-05-16T06:44:25.392Z,78.86
2023-05-16T06:46:51.787Z,78.42
2023-05-16T06:49:18.162Z,77.62
2023-05-16T06:51:44.864Z,77.60
2023-05-16T06:54:11.105Z,77.90
2023-05-16T06:56:37.393Z,77.75
2023-05-16T06:59:03.716Z,76.97
2023-05-16T07:01:30.277Z,76.82
2023-05-16T07:03:56.819Z,76.49
2023-05-16T07:06:23.498Z,76.02
2023-05-16T07:08:50.041Z,75.62
2023-05-16T07:11:16.540Z,74.87
2023-05-16T07:13:42.889Z,74.82
2023-05-16T07:16:09.284Z,75.34
2023-05-16T07:18:36.065Z,75.17
2023-05-16T07:21:02.486Z,74.51
2023-05-16T07:23:28.833Z,74.51
2023-05-16T07:25:55.277Z,74.66
2023-05-16T07:28:22.928Z,74.93
2023-05-16T07:30:49.329Z,74.67
2023-05-16T07:33:15.821Z,74.31
2023-05-16T07:35:42.228Z,73.95
2023-05-16T07:38:08.542Z,73.70
2023-05-16T07:40:38.054Z,73.62
2023-05-16T07:43:04.472Z,73.32
2023-05-16T07:45:31.077Z,73.59
2023-05-16T07:47:57.560Z,73.19
2023-05-16T07:50:24.602Z,73.57
2023-05-16T07:52:51.451Z,73.59
2023-05-16T07:55:17.940Z,73.19
2023-05-16T07:57:44.388Z,72.82
2023-05-16T08:00:14.166Z,72.28
2023-05-16T08:02:41.009Z,72.96
2023-05-16T08:05:08.286Z,71.71
2023-05-16T08:07:34.897Z,71.59
2023-05-16T08:10:01.322Z,71.43
2023-05-16T08:12:30.233Z,70.83
2023-05-16T08:14:56.563Z,70.41
2023-05-16T08:17:25.255Z,70.11
2023-05-16T08:19:51.694Z,69.37
2023-05-16T08:22:18.283Z,68.48
2023-05-16T08:24:44.639Z,67.84
2023-05-16T08:27:11.453Z,67.23
2023-05-16T08:29:38.971Z,67.52
2023-05-16T08:32:06.046Z,67.30
2023-05-16T08:34:32.764Z,67.15
2023-05-16T08:36:59.782Z,66.95
2023-05-16T08:39:26.158Z,67.35
2023-05-16T08:41:53.692Z,67.54
2023-05-16T08:44:23.430Z,67.17
2023-05-16T08:46:51.925Z,66.80
2023-05-16T08:49:19.091Z,66.53
2023-05-16T08:51:46.814Z,65.97
2023-05-16T08:54:14.435Z,66.13
2023-05-16T08:56:43.591Z,65.81
2023-05-16T08:59:11.542Z,65.07
2023-05-16T09:01:38.244Z,64.35
2023-05-16T09:04:08.016Z,64.22
2023-05-16T09:06:37.820Z,63.80
2023-05-16T09:09:07.351Z,63.87
2023-05-16T09:11:36.644Z,63.84
2023-05-16T09:14:05.050Z,63.63
2023-05-16T09:16:31.450Z,62.79
2023-05-16T09:18:59.850Z,63.35
2023-05-16T09:21:34.338Z,62.55
2023-05-16T09:24:08.598Z,63.74
2023-05-16T09:26:37.745Z,63.47
2023-05-16T09:29:13.593Z,62.96
2023-05-16T09:31:40.329Z,62.81
2023-05-16T09:34:08.719Z,62.09
2023-05-16T09:36:36.141Z,61.01
2023-05-16T09:39:03.092Z,61.28
2023-05-16T09:41:34.063Z,60.50
2023-05-16T09:44:04.550Z,59.30
2023-05-16T09:46:33.313Z,58.88
2023-05-16T09:48:59.856Z,57.95
2023-05-16T09:51:26.601Z,58.39
2023-05-16T09:53:54.004Z,56.84
2023-05-16T09:56:20.905Z,56.32
2023-05-16T09:58:47.226Z,55.87
2023-05-16T10:01:13.612Z,55.76
2023-05-16T10:03:41.974Z,54.33
2023-05-16T10:06:09.102Z,55.66
2023-05-16T10:08:36.534Z,56.02
2023-05-16T10:11:04.512Z,55.82
2023-05-16T10:13:33.053Z,55.61
2023-05-16T10:16:05.354Z,55.38
2023-05-16T10:18:32.103Z,54.48
2023-05-16T10:21:05.771Z,55.04
2023-05-16T10:23:33.910Z,55.38
2023-05-16T10:26:03.017Z,54.79
2023-05-16T10:28:29.436Z,55.19
2023-05-16T10:30:55.846Z,55.92
2023-05-16T10:33:22.210Z,55.58
2023-05-16T10:35:48.608Z,55.92
2023-05-16T10:38:17.787Z,56.25
2023-05-16T10:40:44.598Z,56.69
2023-05-16T10:43:26.271Z,57.15
2023-05-16T10:45:57.887Z,57.47
2023-05-16T10:48:34.607Z,56.79
2023-05-16T10:51:02.812Z,56.95
2023-05-16T10:53:33.895Z,57.55
2023-05-16T10:56:00.583Z,57.82
2023-05-16T10:58:33.252Z,56.88
2023-05-16T11:01:24.555Z,56.65
2023-05-16T11:04:03.495Z,56.75
2023-05-16T11:06:41.795Z,56.61
2023-05-16T11:09:26.507Z,56.68
2023-05-16T11:11:57.995Z,55.47
2023-05-16T11:14:28.697Z,55.17
2023-05-16T11:17:15.494Z,54.92
2023-05-16T11:19:47.995Z,54.64
2023-05-16T11:22:23.264Z,54.19
2023-05-16T11:24:49.666Z,53.92
2023-05-16T11:27:26.298Z,54.21
2023-05-16T11:29:55.659Z,53.28
2023-05-16T11:32:23.067Z,52.12
2023-05-16T11:34:51.409Z,52.68
2023-05-16T11:37:19.626Z,52.78
2023-05-16T11:39:46.786Z,53.62
2023-05-16T11:42:13.194Z,52.67
2023-05-16T11:44:40.543Z,52.32
2023-05-16T11:47:07.269Z,51.93
2023-05-16T11:49:34.912Z,51.69
2023-05-16T11:52:02.300Z,51.49
2023-05-16T11:54:28.752Z,50.78
2023-05-16T11:56:55.400Z,51.15
2023-05-16T11:59:22.153Z,51.86
2023-05-16T12:01:48.611Z,52.34
2023-05-16T12:04:16.705Z,52.07
2023-05-16T12:06:47.832Z,51.87
2023-05-16T12:09:17.590Z,51.85
2023-05-16T12:11:44.835Z,52.24
2023-05-16T12:14:12.601Z,51.47
2023-05-16T12:16:43.328Z,50.38
2023-05-16T12:19:10.232Z,51.45
2023-05-16T12:21:37.753Z,50.98
2023-05-16T12:24:10.642Z,50.76
2023-05-16T12:26:40.545Z,50.57
2023-05-16T12:29:07.600Z,50.22
2023-05-16T12:31:39.713Z,49.86
2023-05-16T12:34:16.363Z,49.37
2023-05-16T12:36:43.804Z,48.89
2023-05-16T12:39:13.357Z,49.12
2023-05-16T12:41:44.071Z,49.00
2023-05-16T12:44:18.730Z,49.30
2023-05-16T12:47:05.432Z,49.32
2023-05-16T12:49:46.179Z,50.07
2023-05-16T12:52:20.156Z,50.96
2023-05-16T12:54:57.482Z,51.10
2023-05-16T12:57:28.212Z,50.96
2023-05-16T12:59:54.512Z,51.09
2023-05-16T13:02:21.864Z,50.84
2023-05-16T13:04:48.194Z,50.66
2023-05-16T13:07:14.629Z,50.87
2023-05-16T13:09:41.231Z,50.64
2023-05-16T13:12:07.695Z,50.71
2023-05-16T13:14:34.044Z,50.61
2023-05-16T13:17:00.354Z,50.91
2023-05-16T13:19:26.885Z,50.97
2023-05-16T13:21:53.429Z,51.20
2023-05-16T13:24:19.798Z,51.13
2023-05-16T13:26:46.171Z,51.14
2023-05-16T13:29:12.659Z,51.09
2023-05-16T13:31:39.342Z,51.32
2023-05-16T13:34:06.206Z,50.51
2023-05-16T13:36:41.651Z,51.23
2023-05-16T13:39:16.226Z,51.80
2023-05-16T13:41:46.734Z,51.69
2023-05-16T13:44:15.453Z,51.78
2023-05-16T13:46:41.957Z,51.83
2023-05-16T13:49:08.312Z,52.40
2023-05-16T13:51:34.670Z,52.22
2023-05-16T13:54:01.085Z,52.01
2023-05-16T13:56:27.430Z,51.92
2023-05-16T13:59:03.817Z,51.79
2023-05-16T14:01:33.633Z,51.64
2023-05-16T14:04:00.119Z,52.02
2023-05-16T14:06:26.541Z,52.54
2023-05-16T14:08:52.990Z,52.46
2023-05-16T14:11:25.294Z,52.65
2023-05-16T14:13:54.040Z,52.36
2023-05-16T14:16:22.037Z,52.51
2023-05-16T14:18:49.556Z,52.90
2023-05-16T14:21:15.967Z,52.63
2023-05-16T14:23:42.563Z,52.28
2023-05-16T14:26:09.027Z,52.74
2023-05-16T14:28:35.617Z,52.92
2023-05-16T14:31:02.130Z,53.07
2023-05-16T14:33:28.459Z,52.92
2023-05-16T14:35:55.066Z,53.08
2023-05-16T14:38:21.393Z,52.94
2023-05-16T14:40:47.776Z,52.79
2023-05-16T14:43:14.245Z,52.52
2023-05-16T14:45:40.972Z,52.19
2023-05-16T14:48:08.457Z,52.88
2023-05-16T14:50:35.113Z,52.92
2023-05-16T14:53:01.461Z,53.08
2023-05-16T14:55:28.681Z,52.69
2023-05-16T14:57:59.605Z,52.69
2023-05-16T15:00:26.970Z,52.89
2023-05-16T15:02:54.577Z,52.99
2023-05-16T15:05:20.989Z,53.26
2023-05-16T15:07:47.820Z,53.18
2023-05-16T15:10:14.224Z,53.84
2023-05-16T15:12:42.621Z,53.58
2023-05-16T15:15:15.597Z,53.70
2023-05-16T15:17:42.865Z,53.04
2023-05-16T15:20:11.131Z,53.27
2023-05-16T15:22:40.891Z,53.33
2023-05-16T15:25:08.513Z,53.65
2023-05-16T15:27:34.879Z,53.47
2023-05-16T15:30:01.506Z,54.22
2023-05-16T15:32:27.971Z,54.01
2023-05-16T15:34:54.294Z,54.26
2023-05-16T15:37:20.938Z,54.52
2023-05-16T15:39:47.513Z,55.01
2023-05-16T15:42:14.356Z,54.90
2023-05-16T15:44:40.726Z,54.67
2023-05-16T15:47:08.060Z,54.16
2023-05-16T15:49:34.371Z,54.39
2023-05-16T15:52:00.772Z,54.29
2023-05-16T15:54:27.474Z,53.93
2023-05-16T15:56:53.830Z,54.27
2023-05-16T15:59:20.376Z,54.48
2023-05-16T16:01:46.767Z,54.72
2023-05-16T16:04:13.205Z,54.78
2023-05-16T16:06:40.170Z,54.81
2023-05-16T16:09:06.527Z,55.17
2023-05-16T16:11:33.119Z,55.52
2023-05-16T16:13:59.612Z,55.53
2023-05-16T16:16:26.262Z,56.20
2023-05-16T16:18:53.252Z,56.49
2023-05-16T16:21:20.009Z,56.92
2023-05-16T16:23:46.314Z,57.18
2023-05-16T16:26:12.683Z,57.43
2023-05-16T16:28:39.105Z,56.90
2023-05-16T16:31:05.511Z,56.55
2023-05-16T16:33:33.513Z,56.79
2023-05-16T16:36:00.608Z,56.96
2023-05-16T16:38:26.995Z,57.13
2023-05-16T16:40:53.317Z,57.43
2023-05-16T16:43:19.719Z,57.15
2023-05-16T16:45:46.089Z,57.40
2023-05-16T16:48:12.429Z,57.57
2023-05-16T16:50:39.526Z,57.79
2023-05-16T16:53:05.908Z,58.25
2023-05-16T16:55:32.288Z,58.54
2023-05-16T16:57:58.680Z,58.66
2023-05-16T17:00:24.972Z,58.84
2023-05-16T17:02:51.417Z,58.93
2023-05-16T17:05:17.893Z,58.87
2023-05-16T17:07:44.358Z,59.11
2023-05-16T17:10:10.985Z,59.09
2023-05-16T17:12:45.402Z,59.37
2023-05-16T17:15:12.146Z,59.34
2023-05-16T17:17:38.506Z,59.33
2023-05-16T17:20:06.630Z,59.16
2023-05-16T17:22:36.469Z,59.06
2023-05-16T17:25:03.525Z,59.16
2023-05-16T17:27:30.233Z,59.16
2023-05-16T17:29:56.579Z,59.15
2023-05-16T17:32:23.143Z,59.43
2023-05-16T17:34:50.715Z,60.80
2023-05-16T17:37:17.456Z,61.66
2023-05-16T17:39:43.781Z,62.48
2023-05-16T17:42:10.324Z,63.33
2023-05-16T17:44:36.799Z,63.31
2023-05-16T17:47:03.425Z,63.65
2023-05-16T17:49:30.426Z,64.31
2023-05-16T17:51:57.431Z,64.86
2023-05-16T17:54:26.383Z,64.87
2023-05-16T17:56:54.527Z,65.63
2023-05-16T17:59:20.847Z,65.42
2023-05-16T18:01:47.866Z,65.85
2023-05-16T18:04:14.733Z,65.98
2023-05-16T18:06:41.246Z,66.22
2023-05-16T18:09:09.480Z,66.56
2023-05-16T18:11:38.180Z,67.58
2023-05-16T18:14:04.661Z,68.26
2023-05-16T18:16:31.117Z,68.12
2023-05-16T18:18:57.884Z,68.06
2023-05-16T18:21:25.030Z,68.34
2023-05-16T18:23:51.656Z,68.51
2023-05-16T18:26:30.075Z,68.77
2023-05-16T18:28:57.322Z,69.11
2023-05-16T18:31:23.765Z,69.56
2023-05-16T18:33:50.331Z,70.23
2023-05-16T18:36:16.655Z,70.66
2023-05-16T18:38:43.121Z,70.92
2023-05-16T18:41:09.662Z,70.92
2023-05-16T18:43:44.047Z,71.25
2023-05-16T18:46:20.783Z,71.49
2023-05-16T18:48:47.165Z,71.81
2023-05-16T18:51:13.486Z,71.91
2023-05-16T18:53:39.851Z,72.13
2023-05-16T18:56:06.300Z,72.50
2023-05-16T18:58:32.580Z,72.95
2023-05-16T19:00:58.972Z,73.30
2023-05-16T19:03:25.652Z,73.46
2023-05-16T19:05:55.109Z,73.65
2023-05-16T19:08:23.440Z,73.89
2023-05-16T19:10:51.069Z,74.21
2023-05-16T19:13:17.569Z,74.27
2023-05-16T19:15:43.944Z,74.48
2023-05-16T19:18:10.458Z,74.86
2023-05-16T19:20:36.943Z,75.15
2023-05-16T19:23:03.314Z,75.50
2023-05-16T19:25:29.989Z,75.41
2023-05-16T19:27:56.277Z,75.62
2023-05-16T19:30:23.254Z,75.77
2023-05-16T19:32:50.988Z,76.09
2023-05-16T19:35:18.350Z,76.37
2023-05-16T19:37:45.533Z,76.57
2023-05-16T19:40:13.679Z,76.82
2023-05-16T19:42:42.001Z,77.09
2023-05-16T19:45:08.754Z,77.30
2023-05-16T19:47:35.175Z,77.43
2023-05-16T19:50:02.044Z,77.41
2023-05-16T19:52:29.368Z,77.58
2023-05-16T19:54:55.773Z,77.64
2023-05-16T19:57:24.676Z,77.81
2023-05-16T19:59:51.010Z,77.64
2023-05-16T20:02:20.097Z,77.79
2023-05-16T20:04:47.701Z,78.05
2023-05-16T20:07:14.009Z,78.22
2023-05-16T20:09:40.358Z,78.26
2023-05-16T20:12:07.772Z,78.48
2023-05-16T20:14:35.013Z,78.31
2023-05-16T20:17:01.629Z,78.25
2023-05-16T20:19:29.293Z,78.37
2023-05-16T20:21:55.880Z,78.48
2023-05-16T20:24:22.309Z,78.51
2023-05-16T20:26:49.213Z,78.59
2023-05-16T20:29:15.805Z,78.73
2023-05-16T20:31:43.024Z,78.92
2023-05-16T20:34:10.148Z,79.10
2023-05-16T20:36:36.574Z,79.25
2023-05-16T20:39:03.425Z,79.43
2023-05-16T20:41:29.753Z,79.62
2023-05-16T20:43:56.078Z,79.91
2023-05-16T20:46:22.532Z,79.96
2023-05-16T20:48:48.848Z,80.14
2023-05-16T20:51:15.213Z,80.42
2023-05-16T20:53:41.720Z,80.62
2023-05-16T20:56:08.120Z,80.83
2023-05-16T20:58:34.475Z,80.87
2023-05-16T21:01:01.526Z,81.12
2023-05-16T21:03:27.822Z,81.29
2023-05-16T21:05:54.192Z,81.42
2023-05-16T21:08:20.830Z,81.45
2023-05-16T21:10:47.303Z,81.44
2023-05-16T21:13:13.811Z,81.59
2023-05-16T21:15:40.214Z,81.77
2023-05-16T21:18:06.677Z,81.92
2023-05-16T21:20:33.126Z,82.00
2023-05-16T21:22:59.438Z,82.13
2023-05-16T21:25:25.877Z,82.31
2023-05-16T21:27:52.337Z,82.40
2023-05-16T21:30:18.641Z,82.52
2023-05-16T21:32:45.050Z,82.67
2023-05-16T21:35:11.510Z,82.76
2023-05-16T21:37:37.797Z,82.86
2023-05-16T21:40:05.790Z,82.91
2023-05-16T21:42:32.152Z,82.94
2023-05-16T21:44:58.456Z,83.00
2023-05-16T21:47:25.474Z,83.10
2023-05-16T21:49:51.892Z,83.22
2023-05-16T21:52:18.187Z,83.33
2023-05-16T21:54:50.633Z,83.51
2023-05-16T21:57:18.262Z,83.62
2023-05-16T21:59:45.083Z,83.70
2023-05-16T22:02:11.643Z,83.76
2023-05-16T22:04:37.986Z,83.83
2023-05-16T22:07:04.494Z,83.96
2023-05-16T22:09:30.873Z,84.05
2023-05-16T22:11:57.199Z,84.11
2023-05-16T22:14:23.779Z,84.18
2023-05-16T22:16:50.191Z,84.26
2023-05-16T22:19:16.529Z,84.42
2023-05-16T22:21:42.809Z,84.60
2023-05-16T22:24:09.154Z,84.75
2023-05-16T22:26:35.737Z,84.92
2023-05-16T22:29:02.051Z,85.06
2023-05-16T22:31:28.483Z,85.15
2023-05-16T22:33:54.894Z,85.24
2023-05-16T22:36:21.227Z,85.35
2023-05-16T22:38:47.486Z,85.50
2023-05-16T22:41:14.985Z,85.69
2023-05-16T22:43:41.608Z,85.84
2023-05-16T22:46:07.982Z,85.97
2023-05-16T22:48:34.364Z,86.12
2023-05-16T22:51:01.991Z,86.25
2023-05-16T22:53:29.145Z,86.32
2023-05-16T22:55:55.691Z,86.38
2023-05-16T22:58:22.079Z,86.44
2023-05-16T23:00:48.470Z,86.56
2023-05-16T23:03:14.939Z,86.71
2023-05-16T23:05:41.336Z,86.84
2023-05-16T23:08:07.630Z,86.94
2023-05-16T23:10:34.048Z,87.02
2023-05-16T23:13:00.878Z,87.21
2023-05-16T23:15:27.627Z,87.35
2023-05-16T23:17:54.170Z,87.47
2023-05-16T23:20:20.575Z,87.55
2023-05-16T23:22:47.342Z,87.60
2023-05-16T23:25:13.960Z,87.69
2023-05-16T23:27:40.485Z,87.76
2023-05-16T23:30:08.410Z,87.77
2023-05-16T23:32:34.751Z,87.79
2023-05-16T23:35:01.274Z,87.87
2023-05-16T23:37:27.829Z,87.92
2023-05-16T23:39:54.121Z,87.96
2023-05-16T23:42:20.616Z,88.06
2023-05-16T23:44:47.093Z,88.20
2023-05-16T23:47:13.441Z,88.30
2023-05-16T23:49:40.143Z,88.42
2023-05-16T23:52:06.548Z,88.57
2023-05-16T23:54:33.565Z,88.68
2023-05-16T23:57:00.330Z,88.71
2023-05-16T23:59:26.625Z,88.82
